Time;durP1;ratioP1;P1;durP2;ratioP2;P2;SDS_P1;SDS_P2;PMS_P1;PMS_P2;Temp;Humidity;BMP_temperature;BMP_pressure;BME280_temperature;BME280_humidity;BME280_pressure;Samples;Min_cycle;Max_cycle;Signal;HPM_P1;HPM_P2
2024/01/02 04:01:04;;;;;;;1.67;1.00;;;23.30;28.60;;;;;;5725774;22;45671;-80
2024/01/02 04:03:35;;;;;;;2.38;0.95;;;23.30;28.60;;;;;;4971507;28;44814;-79
2024/01/02 04:06:03;;;;;;;1.70;0.97;;;23.30;28.70;;;;;;4988123;28;45493;-81
2024/01/02 04:08:29;;;;;;;2.20;1.07;;;23.30;28.70;;;;;;4995693;28;46401;-79
2024/01/02 04:10:56;;;;;;;1.75;0.90;;;23.30;28.70;;;;;;5012955;28;45349;-80
2024/01/02 04:13:24;;;;;;;1.70;1.00;;;23.30;28.70;;;;;;5030605;28;59823;-81
2024/01/02 04:15:53;;;;;;;2.13;0.98;;;23.30;28.70;;;;;;4987715;28;45080;-79
2024/01/02 04:18:19;;;;;;;2.55;1.13;;;23.30;28.70;;;;;;4973816;28;45593;-80
2024/01/02 04:20:45;;;;;;;2.20;0.90;;;23.30;28.70;;;;;;5012662;28;45075;-79
2024/01/02 04:23:12;;;;;;;2.70;1.00;;;23.20;28.70;;;;;;4984029;28;45216;-79
2024/01/02 04:25:39;;;;;;;2.38;1.00;;;23.20;28.70;;;;;;5007494;28;44740;-82
2024/01/02 04:28:06;;;;;;;2.20;0.80;;;23.20;28.90;;;;;;5004918;28;45505;-79
2024/01/02 04:30:34;;;;;;;1.97;0.93;;;23.20;28.80;;;;;;5011318;28;45275;-80
2024/01/02 04:33:00;;;;;;;1.80;1.00;;;23.20;28.80;;;;;;4998538;28;45194;-80
2024/01/02 04:35:26;;;;;;;1.88;0.88;;;23.20;28.80;;;;;;4992743;28;45401;-80
2024/01/02 04:37:52;;;;;;;1.70;0.90;;;23.10;28.80;;;;;;4997713;28;46543;-79
2024/01/02 04:43:11;;;;;;;2.40;0.85;;;23.10;28.90;;;;;;4913819;28;45301;-44
2024/01/02 04:45:36;;;;;;;1.67;0.90;;;23.10;28.90;;;;;;4921848;28;45545;-42
2024/01/02 04:48:02;;;;;;;2.17;0.97;;;23.10;28.90;;;;;;4926575;28;45780;-42
2024/01/02 04:50:28;;;;;;;1.88;0.88;;;23.10;29.00;;;;;;4923389;28;46235;-44
2024/01/02 04:52:53;;;;;;;1.87;1.00;;;23.10;29.00;;;;;;4919686;28;46300;-39
2024/01/02 04:55:19;;;;;;;2.67;0.90;;;23.10;29.00;;;;;;4927172;28;45873;-38
2024/01/02 04:57:44;;;;;;;1.53;0.90;;;23.10;29.10;;;;;;4929618;28;47166;-39
2024/01/02 05:00:11;;;;;;;1.70;0.85;;;23.10;29.10;;;;;;4896644;28;47066;-38
2024/01/02 05:02:36;;;;;;;1.35;0.90;;;23.10;29.10;;;;;;4893972;28;45681;-39
2024/01/02 05:05:02;;;;;;;2.20;0.87;;;23.10;29.10;;;;;;4926557;28;45500;-40
2024/01/02 05:07:28;;;;;;;2.15;1.10;;;23.10;29.10;;;;;;4896149;28;45920;-41
2024/01/02 05:09:53;;;;;;;1.90;0.97;;;23.10;29.10;;;;;;4911537;28;47584;-40
2024/01/02 05:12:19;;;;;;;1.93;1.03;;;23.10;29.10;;;;;;4895836;28;45821;-40
2024/01/02 05:14:44;;;;;;;2.37;1.00;;;23.10;29.10;;;;;;4907659;28;45235;-40
2024/01/02 05:17:10;;;;;;;1.70;0.80;;;23.10;29.20;;;;;;4903462;28;45810;-40
2024/01/02 05:19:36;;;;;;;2.10;1.17;;;23.10;29.20;;;;;;4934647;28;45225;-40
2024/01/02 05:22:03;;;;;;;2.20;1.00;;;23.10;29.20;;;;;;4913968;28;45666;-40
2024/01/02 05:24:29;;;;;;;2.25;0.80;;;23.20;29.30;;;;;;4920263;28;45481;-42
2024/01/02 05:26:54;;;;;;;2.30;1.00;;;23.10;29.20;;;;;;4899482;28;45641;-40
2024/01/02 05:29:20;;;;;;;1.43;0.80;;;23.20;29.30;;;;;;4924788;28;45244;-39
2024/01/02 05:31:45;;;;;;;2.45;1.13;;;23.10;29.30;;;;;;4902090;28;45401;-42
2024/01/02 05:34:11;;;;;;;1.92;0.90;;;23.20;29.30;;;;;;4925067;28;45267;-41
2024/01/02 05:36:36;;;;;;;1.10;0.70;;;23.20;29.40;;;;;;4915633;28;45500;-41
2024/01/02 05:39:02;;;;;;;1.90;1.00;;;23.20;29.40;;;;;;4920870;28;45168;-39
2024/01/02 05:41:28;;;;;;;1.35;0.80;;;23.20;29.40;;;;;;4905310;28;51193;-41
2024/01/02 05:43:54;;;;;;;1.20;0.80;;;23.20;29.40;;;;;;4936731;28;45911;-40
2024/01/02 05:46:19;;;;;;;2.00;0.87;;;23.20;29.40;;;;;;4906435;28;45718;-40
2024/01/02 05:48:45;;;;;;;2.00;0.90;;;23.20;29.40;;;;;;4918994;28;45826;-40
2024/01/02 05:51:10;;;;;;;1.33;0.60;;;23.30;29.50;;;;;;4915204;28;45154;-40
2024/01/02 05:53:36;;;;;;;1.77;0.83;;;23.30;29.50;;;;;;4907818;28;45664;-40
2024/01/02 05:56:01;;;;;;;1.60;0.83;;;23.30;29.50;;;;;;4913912;28;46144;-41
2024/01/02 05:58:27;;;;;;;2.47;0.90;;;23.30;29.60;;;;;;4912638;28;45249;-40
2024/01/02 06:00:53;;;;;;;1.40;0.70;;;23.30;29.50;;;;;;4899209;28;45483;-40
2024/01/02 06:03:19;;;;;;;1.33;0.80;;;23.30;29.60;;;;;;4921611;28;45406;-40
2024/01/02 06:05:45;;;;;;;1.50;0.75;;;23.30;29.60;;;;;;4915862;28;45222;-40
2024/01/02 06:08:10;;;;;;;2.30;1.10;;;23.30;29.50;;;;;;4923870;28;45364;-41
2024/01/02 06:10:36;;;;;;;1.63;0.70;;;23.40;29.60;;;;;;4913613;28;46188;-41
2024/01/02 06:13:02;;;;;;;1.48;0.70;;;23.40;29.60;;;;;;4913648;28;45324;-40
2024/01/02 06:15:28;;;;;;;2.75;0.90;;;23.40;29.60;;;;;;4917441;28;47374;-40
2024/01/02 06:17:53;;;;;;;1.80;0.70;;;23.40;29.60;;;;;;4918537;28;45291;-40
2024/01/02 06:20:20;;;;;;;1.80;0.82;;;23.40;29.60;;;;;;4913583;28;46243;-39
2024/01/02 06:22:45;;;;;;;1.98;0.98;;;23.50;29.60;;;;;;4922696;28;45853;-40
2024/01/02 06:25:11;;;;;;;3.00;0.98;;;23.50;29.60;;;;;;4916588;28;45698;-40
2024/01/02 06:27:36;;;;;;;1.20;0.70;;;23.50;29.60;;;;;;4919441;28;45024;-40
2024/01/02 06:30:11;;;;;;;1.70;0.70;;;23.50;29.60;;;;;;4905947;28;46125;-40
2024/01/02 06:32:36;;;;;;;1.85;0.80;;;23.50;29.60;;;;;;4900290;28;45283;-41
2024/01/02 06:35:02;;;;;;;2.00;0.80;;;23.50;29.60;;;;;;4919694;28;45857;-40
2024/01/02 06:37:28;;;;;;;1.23;0.70;;;23.60;29.70;;;;;;4898968;28;45411;-40
2024/01/02 06:39:54;;;;;;;1.60;0.60;;;23.60;29.70;;;;;;4922774;28;45587;-40
2024/01/02 06:42:19;;;;;;;2.30;0.88;;;23.60;29.60;;;;;;4909767;28;45239;-40
2024/01/02 06:44:45;;;;;;;4.07;0.80;;;23.60;29.60;;;;;;4920989;28;46530;-40
2024/01/02 06:47:11;;;;;;;2.70;1.02;;;23.60;29.60;;;;;;4889981;28;45278;-46
2024/01/02 06:49:36;;;;;;;1.87;0.80;;;23.70;29.70;;;;;;4907405;28;45374;-42
2024/01/02 06:52:02;;;;;;;2.37;0.90;;;23.70;29.70;;;;;;4896483;28;45771;-43
2024/01/02 06:54:28;;;;;;;1.30;0.70;;;23.70;29.70;;;;;;4929237;28;45703;-44
2024/01/02 06:56:53;;;;;;;1.90;0.90;;;23.70;29.60;;;;;;4895659;28;45239;-44
2024/01/02 06:59:19;;;;;;;2.00;0.90;;;23.70;29.60;;;;;;4931317;28;45354;-44
2024/01/02 07:01:45;;;;;;;1.63;0.70;;;23.80;29.70;;;;;;4907207;28;45771;-43
2024/01/02 07:04:12;;;;;;;1.43;0.70;;;23.80;29.70;;;;;;4911217;28;45081;-44
2024/01/02 07:06:37;;;;;;;2.75;0.75;;;23.80;29.70;;;;;;4921766;28;45135;-45
2024/01/02 07:09:03;;;;;;;1.58;0.70;;;23.80;29.70;;;;;;4918766;28;45176;-45
2024/01/02 07:11:28;;;;;;;2.08;0.88;;;23.80;29.60;;;;;;4913109;28;45738;-45
2024/01/02 07:13:54;;;;;;;1.73;0.80;;;23.90;29.70;;;;;;4931998;28;46193;-45
2024/01/02 07:16:19;;;;;;;2.13;0.77;;;23.90;29.70;;;;;;4916460;28;45145;-47
2024/01/02 07:18:45;;;;;;;1.50;0.80;;;23.90;29.60;;;;;;4911665;28;44763;-43
2024/01/02 07:21:10;;;;;;;1.40;0.70;;;23.90;29.60;;;;;;4899473;28;45072;-44
2024/01/02 07:23:36;;;;;;;0.93;0.70;;;24.00;29.70;;;;;;4929079;28;45996;-44
2024/01/02 07:26:02;;;;;;;1.30;0.70;;;24.00;29.70;;;;;;4913899;28;45125;-42
2024/01/02 07:28:28;;;;;;;0.82;0.52;;;24.00;29.70;;;;;;4932009;28;45270;-42
2024/01/02 07:30:53;;;;;;;1.95;0.73;;;24.10;29.70;;;;;;4907597;28;45909;-43
2024/01/02 07:33:19;;;;;;;1.25;0.80;;;24.10;29.70;;;;;;4921130;28;45464;-44
2024/01/02 07:35:45;;;;;;;2.35;0.60;;;24.10;29.70;;;;;;4914988;28;45736;-44
2024/01/02 07:38:10;;;;;;;1.27;0.70;;;24.10;29.80;;;;;;4927374;28;46420;-43
2024/01/02 07:40:36;;;;;;;1.25;0.68;;;24.10;29.60;;;;;;4921607;28;45526;-43
2024/01/02 07:43:03;;;;;;;1.85;0.90;;;24.10;29.60;;;;;;4923714;28;45655;-43
2024/01/02 07:45:29;;;;;;;2.20;0.70;;;24.10;29.60;;;;;;4914149;28;45224;-45
2024/01/02 07:47:54;;;;;;;1.48;0.70;;;24.20;29.60;;;;;;4932584;28;45554;-43
2024/01/02 07:50:20;;;;;;;1.40;0.60;;;24.20;30.00;;;;;;4916847;28;45612;-43
2024/01/02 07:52:47;;;;;;;1.33;0.60;;;24.20;29.50;;;;;;4931964;28;45335;-44
2024/01/02 07:55:12;;;;;;;1.63;0.80;;;24.20;29.50;;;;;;4922131;28;45478;-48
2024/01/02 07:57:38;;;;;;;1.55;0.60;;;24.30;29.50;;;;;;4931699;28;44777;-45
2024/01/02 08:00:04;;;;;;;1.10;0.60;;;24.30;29.50;;;;;;4907323;28;45215;-47
2024/01/02 08:02:31;;;;;;;1.40;0.70;;;24.30;29.50;;;;;;4887157;28;45705;-44
2024/01/02 08:04:56;;;;;;;1.50;0.52;;;24.30;29.50;;;;;;4925268;28;44791;-42
2024/01/02 08:07:25;;;;;;;0.87;0.60;;;24.40;29.50;;;;;;4918338;28;46151;-47
2024/01/02 08:09:54;;;;;;;1.17;0.67;;;24.40;29.40;;;;;;4904232;28;45447;-42
2024/01/02 08:12:19;;;;;;;2.13;0.77;;;24.40;29.40;;;;;;4911796;28;45432;-43
2024/01/02 08:14:45;;;;;;;0.80;0.50;;;24.40;29.40;;;;;;4928653;28;46369;-42
2024/01/02 08:17:11;;;;;;;2.30;0.60;;;24.40;29.40;;;;;;4908246;28;45355;-47
2024/01/02 08:19:36;;;;;;;1.43;0.80;;;24.40;29.40;;;;;;4911991;28;45443;-42
2024/01/02 08:22:02;;;;;;;1.53;0.60;;;24.40;29.30;;;;;;4914108;28;45469;-44
2024/01/02 08:24:28;;;;;;;1.25;0.52;;;24.50;29.40;;;;;;4917199;28;45033;-43
2024/01/02 08:26:53;;;;;;;1.45;0.60;;;24.50;29.30;;;;;;4912077;28;45295;-44
2024/01/02 08:29:19;;;;;;;2.63;0.60;;;24.50;29.30;;;;;;4924026;28;45514;-44
2024/01/02 08:31:44;;;;;;;0.83;0.50;;;24.50;29.30;;;;;;4906264;28;46047;-42
2024/01/02 08:34:10;;;;;;;1.10;0.57;;;24.60;29.30;;;;;;4921536;28;45215;-43
2024/01/02 08:36:36;;;;;;;1.30;0.60;;;24.50;29.30;;;;;;4918395;28;44984;-42
2024/01/02 08:39:03;;;;;;;1.15;0.70;;;24.60;29.30;;;;;;4927816;28;45863;-47
2024/01/02 08:41:28;;;;;;;2.33;0.70;;;24.60;29.30;;;;;;4914091;28;46547;-44
2024/01/02 08:43:54;;;;;;;1.30;0.60;;;24.60;29.30;;;;;;4913192;28;45263;-44
2024/01/02 08:46:19;;;;;;;1.40;0.60;;;24.60;29.30;;;;;;4909234;28;45598;-47
2024/01/02 08:48:45;;;;;;;0.95;0.57;;;24.60;29.30;;;;;;4927142;28;45597;-43
2024/01/02 08:51:11;;;;;;;1.10;0.57;;;24.60;29.20;;;;;;4915323;28;45625;-42
2024/01/02 08:53:37;;;;;;;0.80;0.60;;;24.60;29.30;;;;;;4929823;28;45846;-42
2024/01/02 08:56:03;;;;;;;0.90;0.53;;;24.70;29.30;;;;;;4914183;28;45491;-43
2024/01/02 08:58:28;;;;;;;0.63;0.52;;;24.70;29.30;;;;;;4914921;28;45337;-44
2024/01/02 09:00:54;;;;;;;1.07;0.50;;;24.60;29.30;;;;;;4910609;28;45964;-42
2024/01/02 09:03:19;;;;;;;1.07;0.70;;;24.70;29.30;;;;;;4925870;28;44998;-43
2024/01/02 09:05:45;;;;;;;1.43;0.60;;;24.70;29.30;;;;;;4917541;28;45212;-44
2024/01/02 09:08:11;;;;;;;0.70;0.50;;;24.70;29.30;;;;;;4922188;28;45338;-43
2024/01/02 09:10:37;;;;;;;1.38;0.70;;;24.70;29.30;;;;;;4913723;28;45367;-45
2024/01/02 09:13:03;;;;;;;0.90;0.60;;;24.70;29.30;;;;;;4925476;28;44948;-43
2024/01/02 09:15:30;;;;;;;1.13;0.60;;;24.70;29.30;;;;;;4911251;28;45529;-45
2024/01/02 09:17:55;;;;;;;1.50;0.60;;;24.70;29.30;;;;;;4923421;28;45017;-47
2024/01/02 09:20:21;;;;;;;1.07;0.50;;;24.70;29.30;;;;;;4909304;28;46343;-44
2024/01/02 09:22:46;;;;;;;0.70;0.50;;;24.70;29.30;;;;;;4910619;28;45059;-44
2024/01/02 09:25:12;;;;;;;1.53;0.50;;;24.70;29.30;;;;;;4918575;28;45040;-45
2024/01/02 09:27:37;;;;;;;1.17;0.50;;;24.70;29.30;;;;;;4909089;28;45335;-43
2024/01/02 09:30:04;;;;;;;0.60;0.40;;;24.70;29.30;;;;;;4922908;28;45433;-52
2024/01/02 09:32:30;;;;;;;1.30;0.60;;;24.70;29.40;;;;;;4895690;28;45667;-42
2024/01/02 09:34:56;;;;;;;0.80;0.60;;;24.70;29.30;;;;;;4908005;28;45448;-43
2024/01/02 09:37:21;;;;;;;0.88;0.50;;;24.70;29.30;;;;;;4905868;28;46069;-46
2024/01/02 09:39:47;;;;;;;1.27;0.50;;;24.70;29.40;;;;;;4921929;28;45588;-44
2024/01/02 09:42:24;;;;;;;0.80;0.60;;;24.70;29.40;;;;;;4910247;28;45256;-43
2024/01/02 09:45:02;;;;;;;1.40;0.50;;;24.70;29.40;;;;;;4927743;28;45451;-45
2024/01/02 09:48:02;;;;;;;0.93;0.55;;;24.70;29.40;;;;;;4889213;28;45440;-45
2024/01/02 09:50:37;;;;;;;1.30;0.80;;;24.70;29.40;;;;;;4902721;28;46078;-43
2024/01/02 09:53:18;;;;;;;1.00;0.80;;;24.70;29.40;;;;;;4925862;28;45409;-43
2024/01/02 09:55:58;;;;;;;1.25;1.10;;;24.70;29.40;;;;;;4914170;28;45614;-43
2024/01/02 09:58:57;;;;;;;1.35;1.00;;;24.70;29.40;;;;;;4906225;28;45596;-42
2024/01/02 10:01:32;;;;;;;1.30;0.80;;;24.70;29.40;;;;;;4893545;28;46012;-44
2024/01/02 10:04:34;;;;;;;1.42;1.15;;;24.70;29.50;;;;;;4926772;28;45187;-44
2024/01/02 10:07:12;;;;;;;1.35;1.10;;;24.70;29.50;;;;;;4913456;28;45308;-42
2024/01/02 10:10:03;;;;;;;1.33;0.85;;;24.80;30.00;;;;;;4924386;28;45046;-45
2024/01/02 10:12:55;;;;;;;1.10;0.90;;;24.80;29.50;;;;;;4912169;28;46497;-45
2024/01/02 10:15:24;;;;;;;1.10;0.90;;;24.80;29.60;;;;;;4910613;28;45124;-45
2024/01/02 10:18:13;;;;;;;1.00;0.90;;;24.80;29.60;;;;;;4918531;28;45637;-43
2024/01/02 10:21:02;;;;;;;0.80;0.80;;;24.80;29.60;;;;;;4916859;28;45303;-44
2024/01/02 10:23:38;;;;;;;0.90;0.70;;;24.80;29.60;;;;;;4929213;28;45434;-44
2024/01/02 10:26:04;;;;;;;1.20;0.70;;;24.80;29.60;;;;;;4897402;28;47223;-42
2024/01/02 10:28:30;;;;;;;0.93;0.70;;;24.80;29.60;;;;;;4924504;28;45348;-42
2024/01/02 10:31:07;;;;;;;0.68;0.65;;;24.80;29.70;;;;;;4891427;28;45140;-44
2024/01/02 10:33:38;;;;;;;0.75;0.63;;;24.70;29.60;;;;;;4921122;28;45928;-44
2024/01/02 10:36:04;;;;;;;0.87;0.80;;;24.80;29.70;;;;;;4915100;28;46361;-43
2024/01/02 10:38:43;;;;;;;1.15;0.80;;;24.80;29.70;;;;;;4923399;28;45337;-43
2024/01/02 10:41:14;;;;;;;0.60;0.60;;;24.80;29.70;;;;;;4901205;28;45140;-45
2024/01/02 10:43:53;;;;;;;0.90;0.68;;;24.80;30.20;;;;;;4927103;28;45139;-43
2024/01/02 10:46:28;;;;;;;0.68;0.68;;;24.80;29.70;;;;;;4899906;28;45260;-43
2024/01/02 10:49:25;;;;;;;1.10;1.00;;;24.70;29.70;;;;;;4927267;28;45275;-43
2024/01/02 10:51:56;;;;;;;1.30;1.10;;;24.70;29.70;;;;;;4895538;28;45401;-46
2024/01/02 10:54:49;;;;;;;2.20;1.40;;;24.70;29.70;;;;;;4914991;28;45482;-42
2024/01/02 10:57:19;;;;;;;1.98;1.40;;;24.70;29.70;;;;;;4884448;28;45292;-44
2024/01/02 11:00:10;;;;;;;1.80;1.70;;;24.70;29.70;;;;;;4895651;28;45303;-42
2024/01/02 11:02:53;;;;;;;2.22;1.50;;;24.70;29.70;;;;;;4906289;28;46365;-43
2024/01/02 11:05:31;;;;;;;2.17;1.70;;;24.70;29.70;;;;;;4914038;28;45452;-44
2024/01/02 11:08:03;;;;;;;2.00;1.80;;;24.70;29.70;;;;;;4930312;28;45262;-44
2024/01/02 11:10:29;;;;;;;1.40;1.30;;;24.70;29.80;;;;;;4910975;28;45639;-44
2024/01/02 11:12:59;;;;;;;1.77;1.60;;;24.70;29.80;;;;;;4927118;28;44877;-43
2024/01/02 11:15:24;;;;;;;1.40;1.30;;;24.70;29.80;;;;;;4893639;28;45440;-42
2024/01/02 11:17:52;;;;;;;2.40;1.30;;;24.70;29.90;;;;;;4892709;28;45617;-42
2024/01/02 11:20:20;;;;;;;1.52;1.40;;;24.70;29.90;;;;;;4891807;28;45680;-46
2024/01/02 11:23:06;;;;;;;1.23;1.10;;;24.70;29.90;;;;;;4911049;28;46153;-44
2024/01/02 11:25:34;;;;;;;1.63;1.50;;;24.70;29.90;;;;;;4916566;28;45632;-41
2024/01/02 11:28:02;;;;;;;1.83;1.60;;;24.60;30.00;;;;;;4920975;28;45285;-43
2024/01/02 11:30:33;;;;;;;2.33;1.83;;;24.60;29.90;;;;;;4892550;28;45415;-44
2024/01/02 11:33:01;;;;;;;2.40;2.00;;;24.60;30.00;;;;;;4923754;28;46467;-42
2024/01/02 11:35:27;;;;;;;2.30;1.90;;;24.60;30.00;;;;;;4927123;28;45679;-46
2024/01/02 11:38:07;;;;;;;1.80;1.67;;;24.60;30.00;;;;;;4911330;28;45298;-44
2024/01/02 11:40:53;;;;;;;2.13;1.70;;;24.60;30.00;;;;;;4898126;28;45329;-43
2024/01/02 11:43:48;;;;;;;1.67;1.50;;;24.60;30.00;;;;;;4911164;28;45297;-41
2024/01/02 11:46:14;;;;;;;1.60;1.50;;;24.70;30.00;;;;;;4908218;28;45824;-43
2024/01/02 11:48:47;;;;;;;1.90;1.48;;;24.60;30.00;;;;;;4920423;28;45465;-42
2024/01/02 11:51:24;;;;;;;1.50;1.30;;;24.60;30.00;;;;;;4914522;28;47448;-42
2024/01/02 11:53:59;;;;;;;1.80;1.42;;;24.60;30.00;;;;;;4924386;28;45242;-42
2024/01/02 11:56:24;;;;;;;1.50;1.40;;;24.60;30.00;;;;;;4916062;28;46168;-44
2024/01/02 12:01:38;;;;;;;1.75;1.38;;;24.60;30.00;;;;;;4920453;28;45381;-40
2024/01/02 12:04:16;;;;;;;1.60;1.27;;;24.60;30.10;;;;;;4923496;28;45190;-41
2024/01/02 12:07:17;;;;;;;1.53;1.20;;;24.60;30.10;;;;;;4946309;28;45423;-44
2024/01/02 12:09:43;;;;;;;1.60;1.10;;;24.60;30.10;;;;;;4936641;28;44778;-42
2024/01/02 12:12:40;;;;;;;1.38;1.20;;;24.60;30.10;;;;;;4948621;28;45284;-47
2024/01/02 12:15:13;;;;;;;1.23;1.10;;;24.60;30.10;;;;;;4958373;28;45848;-46
2024/01/02 12:18:03;;;;;;;1.08;0.98;;;24.60;30.20;;;;;;4925131;28;45092;-41
2024/01/02 12:20:38;;;;;;;1.00;0.90;;;24.60;30.20;;;;;;4943429;28;45194;-42
2024/01/02 12:23:05;;;;;;;0.90;0.83;;;24.50;30.20;;;;;;4962463;28;45380;-40
2024/01/02 12:25:30;;;;;;;0.80;0.80;;;24.60;30.30;;;;;;4940496;28;45810;-41
2024/01/02 12:27:56;;;;;;;1.00;0.90;;;24.60;30.30;;;;;;4939307;28;45033;-42
2024/01/02 12:30:24;;;;;;;1.07;0.90;;;24.60;30.30;;;;;;4929437;28;45424;-41
2024/01/02 12:33:01;;;;;;;1.02;0.80;;;24.50;30.30;;;;;;4933575;28;45458;-41
2024/01/02 12:35:39;;;;;;;0.87;0.87;;;24.50;30.30;;;;;;4931573;28;45635;-45
2024/01/02 12:38:17;;;;;;;1.15;0.90;;;24.50;30.30;;;;;;4941244;28;45375;-44
2024/01/02 12:40:45;;;;;;;0.70;0.70;;;24.50;30.40;;;;;;4925826;28;45454;-43
2024/01/02 12:43:20;;;;;;;0.90;0.77;;;24.50;30.30;;;;;;4959867;28;45578;-41
2024/01/02 12:45:51;;;;;;;0.77;0.77;;;24.50;30.40;;;;;;4918779;28;46111;-41
2024/01/02 12:48:21;;;;;;;0.80;0.80;;;24.50;30.40;;;;;;4955237;28;45324;-43
2024/01/02 12:50:49;;;;;;;0.70;0.70;;;24.50;30.40;;;;;;4926921;28;45206;-41
2024/01/02 12:53:15;;;;;;;1.20;0.73;;;24.50;31.10;;;;;;4962483;28;44755;-42
2024/01/02 12:55:49;;;;;;;0.70;0.70;;;24.50;30.50;;;;;;4930848;28;45266;-44
2024/01/02 12:58:15;;;;;;;0.70;0.60;;;24.50;30.50;;;;;;4962675;28;46127;-42
2024/01/02 13:00:41;;;;;;;0.75;0.70;;;24.50;30.50;;;;;;4915608;28;45407;-46
2024/01/02 13:03:07;;;;;;;0.70;0.70;;;24.40;30.50;;;;;;4926469;28;45484;-41
2024/01/02 13:05:33;;;;;;;0.65;0.60;;;24.40;30.60;;;;;;4946593;28;45300;-41
2024/01/02 13:08:00;;;;;;;0.60;0.60;;;24.50;30.60;;;;;;4924181;28;46708;-42
2024/01/02 13:10:26;;;;;;;0.50;0.50;;;24.40;30.60;;;;;;4927207;28;45322;-43
2024/01/02 13:12:53;;;;;;;0.60;0.50;;;24.40;30.60;;;;;;4936511;28;45465;-41
2024/01/02 13:15:20;;;;;;;1.25;0.68;;;24.40;30.70;;;;;;4930478;28;44723;-48
2024/01/02 13:17:45;;;;;;;0.60;0.60;;;24.50;30.80;;;;;;4951769;28;45261;-42
2024/01/02 13:20:11;;;;;;;0.63;0.63;;;24.40;30.70;;;;;;4916638;28;45183;-44
2024/01/02 13:22:37;;;;;;;0.80;0.70;;;24.40;30.70;;;;;;4949036;28;45300;-43
2024/01/02 13:25:13;;;;;;;1.10;0.75;;;24.40;30.70;;;;;;4944558;28;46444;-46
2024/01/02 13:27:39;;;;;;;0.70;0.50;;;24.40;30.70;;;;;;4953554;28;45513;-42
2024/01/02 13:30:05;;;;;;;0.60;0.60;;;24.40;30.80;;;;;;4937001;28;45315;-48
2024/01/02 13:32:30;;;;;;;0.65;0.65;;;24.40;30.80;;;;;;4892867;28;45784;-42
2024/01/02 13:35:19;;;;;;;0.93;0.60;;;24.40;30.80;;;;;;4919956;28;45862;-41
2024/01/02 13:37:45;;;;;;;1.13;0.70;;;24.40;30.80;;;;;;4931004;28;45363;-43
2024/01/02 13:40:23;;;;;;;0.53;0.53;;;24.40;30.80;;;;;;4953093;28;45206;-46
2024/01/02 13:42:55;;;;;;;0.60;0.60;;;24.40;30.90;;;;;;4950820;28;45338;-43
2024/01/02 13:45:26;;;;;;;0.80;0.60;;;24.40;30.90;;;;;;4943530;28;45237;-43
2024/01/02 13:47:57;;;;;;;0.55;0.55;;;24.40;30.90;;;;;;4954327;28;45193;-42
2024/01/02 13:50:32;;;;;;;0.70;0.60;;;24.40;30.90;;;;;;4940128;28;44894;-42
2024/01/02 13:53:05;;;;;;;0.50;0.50;;;24.40;30.90;;;;;;4934392;28;45134;-43
2024/01/02 13:55:33;;;;;;;0.70;0.60;;;24.40;30.90;;;;;;4949675;28;45313;-42
2024/01/02 13:58:11;;;;;;;0.60;0.40;;;24.40;31.00;;;;;;4956719;28;45206;-42
2024/01/02 14:00:38;;;;;;;0.50;0.50;;;24.40;31.00;;;;;;4955796;28;45292;-42
2024/01/02 14:03:05;;;;;;;0.40;0.40;;;24.40;31.00;;;;;;4955271;28;45328;-41
2024/01/02 14:05:30;;;;;;;0.40;0.40;;;24.40;31.00;;;;;;4950867;28;44858;-41
2024/01/02 14:07:57;;;;;;;0.40;0.40;;;24.40;31.00;;;;;;4947232;28;45859;-45
2024/01/02 14:10:26;;;;;;;0.50;0.50;;;24.40;31.00;;;;;;4955426;28;44913;-41
2024/01/02 14:12:52;;;;;;;0.60;0.50;;;24.40;31.10;;;;;;4965481;28;45313;-43
2024/01/02 14:15:19;;;;;;;0.57;0.50;;;24.40;31.10;;;;;;4958001;28;45589;-42
2024/01/02 14:17:46;;;;;;;0.50;0.40;;;24.40;31.10;;;;;;4973922;28;46202;-46
2024/01/02 14:20:18;;;;;;;0.50;0.50;;;24.40;31.10;;;;;;4976490;28;45929;-41
2024/01/02 14:23:06;;;;;;;0.50;0.50;;;24.40;31.10;;;;;;4959651;28;45221;-41
2024/01/02 14:25:39;;;;;;;0.50;0.50;;;24.40;31.10;;;;;;4967611;28;45438;-47
2024/01/02 14:28:20;;;;;;;0.67;0.50;;;24.40;31.10;;;;;;4959849;28;45784;-44
2024/01/02 14:30:55;;;;;;;0.57;0.50;;;24.40;31.20;;;;;;4954287;28;46038;-45
2024/01/02 14:33:42;;;;;;;0.50;0.47;;;24.30;31.10;;;;;;4975223;28;45265;-43
2024/01/02 14:36:29;;;;;;;1.10;0.50;;;24.30;31.10;;;;;;4947293;28;46117;-44
2024/01/02 14:39:20;;;;;;;0.50;0.50;;;24.30;31.20;;;;;;4958686;28;46199;-41
2024/01/02 14:42:03;;;;;;;0.57;0.52;;;24.30;31.20;;;;;;4955293;28;45571;-45
2024/01/02 14:44:58;;;;;;;0.50;0.45;;;24.30;31.20;;;;;;4958203;28;45339;-45
2024/01/02 14:47:42;;;;;;;0.60;0.50;;;24.40;31.30;;;;;;4953468;28;45281;-43
2024/01/02 14:50:08;;;;;;;0.40;0.40;;;24.30;31.20;;;;;;4968903;28;45537;-43
2024/01/02 14:52:48;;;;;;;0.30;0.30;;;24.30;31.20;;;;;;4952731;28;45739;-45
2024/01/02 14:55:21;;;;;;;0.43;0.43;;;24.40;31.30;;;;;;4952698;28;45255;-43
2024/01/02 14:57:58;;;;;;;0.50;0.40;;;24.40;31.30;;;;;;4942261;28;47055;-47
2024/01/02 15:00:24;;;;;;;0.37;0.30;;;24.40;31.40;;;;;;4937554;28;45495;-45
2024/01/02 15:03:08;;;;;;;0.60;0.50;;;24.30;31.30;;;;;;4945996;28;45163;-45
2024/01/02 15:05:52;;;;;;;0.40;0.40;;;24.30;31.30;;;;;;4930147;28;45542;-44
2024/01/02 15:08:19;;;;;;;0.57;0.40;;;24.30;31.30;;;;;;4957339;28;45421;-45
2024/01/02 15:11:00;;;;;;;0.50;0.40;;;24.30;31.30;;;;;;4943565;28;47548;-43
2024/01/02 15:13:26;;;;;;;0.40;0.40;;;24.30;31.30;;;;;;4943564;28;46161;-43
2024/01/02 15:16:11;;;;;;;0.30;0.30;;;24.30;31.30;;;;;;4938801;28;45566;-45
2024/01/02 15:18:51;;;;;;;0.85;0.30;;;24.30;31.40;;;;;;4959835;28;45671;-43
2024/01/02 15:21:52;;;;;;;0.30;0.30;;;24.20;31.30;;;;;;4946277;28;45395;-43
2024/01/02 15:24:21;;;;;;;0.43;0.40;;;24.30;31.40;;;;;;4958748;28;45248;-46
2024/01/02 15:27:06;;;;;;;0.30;0.30;;;24.20;31.40;;;;;;4953890;28;45260;-44
2024/01/02 15:29:37;;;;;;;0.30;0.30;;;24.30;31.40;;;;;;4944539;28;45386;-43
2024/01/02 15:32:15;;;;;;;0.35;0.30;;;24.30;31.50;;;;;;4938138;28;45346;-43
2024/01/02 15:34:56;;;;;;;0.52;0.40;;;24.30;31.50;;;;;;4941582;28;45690;-43
2024/01/02 15:37:29;;;;;;;0.30;0.30;;;24.30;31.50;;;;;;4950121;28;44920;-47
2024/01/02 15:40:20;;;;;;;0.20;0.20;;;24.20;31.50;;;;;;4961408;28;45652;-41
2024/01/02 15:42:48;;;;;;;0.35;0.30;;;24.20;31.50;;;;;;4940966;28;45346;-44
2024/01/02 15:45:21;;;;;;;0.40;0.32;;;24.20;31.50;;;;;;4924709;28;45616;-48
2024/01/02 15:48:24;;;;;;;0.30;0.30;;;24.20;31.50;;;;;;4936558;28;45885;-45
2024/01/02 15:50:51;;;;;;;0.30;0.30;;;24.20;31.50;;;;;;4877269;28;45758;-44
2024/01/02 15:53:33;;;;;;;0.50;0.20;;;24.20;31.50;;;;;;4896069;28;48163;-44
2024/01/02 15:56:04;;;;;;;0.30;0.30;;;24.20;31.50;;;;;;4929500;28;45159;-43
2024/01/02 15:58:55;;;;;;;0.30;0.30;;;24.20;31.60;;;;;;4961017;28;45343;-45
2024/01/02 16:01:20;;;;;;;1.10;0.20;;;24.20;31.60;;;;;;4928702;28;45634;-43
2024/01/02 16:04:11;;;;;;;0.52;0.20;;;24.20;31.60;;;;;;4971383;28;50689;-44
2024/01/02 16:07:04;;;;;;;0.30;0.20;;;24.20;31.70;;;;;;4966763;28;45312;-46
2024/01/02 16:09:41;;;;;;;1.30;0.30;;;24.20;31.70;;;;;;4967451;28;45797;-44
2024/01/02 16:12:43;;;;;;;0.80;0.30;;;24.20;31.70;;;;;;4961514;28;45197;-46
2024/01/02 16:15:13;;;;;;;0.22;0.20;;;24.20;31.70;;;;;;4929801;28;45296;-46
2024/01/02 16:17:41;;;;;;;0.40;0.30;;;24.20;31.80;;;;;;4960518;28;44940;-43
2024/01/02 16:20:30;;;;;;;0.57;0.30;;;24.20;31.80;;;;;;4968599;28;45107;-42
2024/01/02 16:23:33;;;;;;;0.80;0.30;;;24.20;31.80;;;;;;4976396;28;46212;-40
2024/01/02 16:26:22;;;;;;;0.50;0.22;;;24.20;31.80;;;;;;4959385;28;46066;-42
2024/01/02 16:29:19;;;;;;;2.28;0.40;;;24.10;31.80;;;;;;4948420;28;45824;-42
2024/01/02 16:32:23;;;;;;;0.47;0.30;;;24.10;31.90;;;;;;4896307;28;45696;-45
2024/01/02 16:34:57;;;;;;;0.30;0.28;;;24.10;31.90;;;;;;4968510;28;46106;-44
2024/01/02 16:37:41;;;;;;;0.30;0.30;;;24.10;31.90;;;;;;4917898;28;45655;-45
2024/01/02 16:40:35;;;;;;;0.73;0.32;;;24.10;31.90;;;;;;4958764;28;45774;-48
2024/01/02 16:43:00;;;;;;;0.40;0.40;;;24.10;32.00;;;;;;4965027;28;45983;-44
2024/01/02 16:45:32;;;;;;;0.50;0.38;;;24.10;32.00;;;;;;4931450;28;46098;-47
2024/01/02 16:47:59;;;;;;;0.35;0.35;;;24.10;32.10;;;;;;4930225;28;45375;-47
2024/01/02 16:50:25;;;;;;;0.80;0.35;;;24.10;32.10;;;;;;4940742;28;45295;-45
2024/01/02 16:52:53;;;;;;;0.55;0.40;;;24.10;32.10;;;;;;4956367;28;45980;-44
2024/01/02 16:55:19;;;;;;;0.60;0.50;;;24.10;32.10;;;;;;4919350;28;46223;-44
2024/01/02 16:57:44;;;;;;;0.70;0.53;;;24.10;32.10;;;;;;4932954;28;47118;-43
2024/01/02 17:00:10;;;;;;;1.20;0.50;;;24.10;32.10;;;;;;4945250;28;45261;-47
2024/01/02 17:02:36;;;;;;;0.60;0.50;;;24.10;32.20;;;;;;4935908;28;45379;-45
2024/01/02 17:05:06;;;;;;;0.50;0.50;;;24.10;32.20;;;;;;4947049;28;45353;-44
2024/01/02 17:07:32;;;;;;;0.90;0.43;;;24.10;32.20;;;;;;4960798;28;45966;-45
2024/01/02 17:09:58;;;;;;;0.65;0.50;;;24.10;32.20;;;;;;4948005;28;45615;-44
2024/01/02 17:12:31;;;;;;;1.63;0.60;;;24.10;32.30;;;;;;4949650;28;45559;-44
2024/01/02 17:14:57;;;;;;;1.50;0.60;;;24.00;32.20;;;;;;4961405;28;45356;-44